Au Sable Forks, New York
Current Conditions -  °F | °C
As of 5:30 AM on Sunday 23 Nov 2014 (Local Time) from KPBG Reporting Station
Overcast Overcast  
Wind Chill: 34°   Ceiling: 2700
Heat Index: 38°   Visibility: 10mi
Dew Point: 35°   Wind: 5mph
Humidity: 89%   Direction: 170°S
Pressure: 29.98"   Gusts: NA
Location:  44.44°N, 73.67°W
Report Text: KPBG 231030Z AUTO 17004KT 10SM OVC027 03/02 A2998 RMK AO2 RAE0956 P0000 T00330017
Loading
Personal Weather Stations






























Interactive Weather Map New forecast layout! Learn more

10-Day Weather Forecast

Advertisements
Track Severe Weather on mobile